Time;durP1;ratioP1;P1;durP2;ratioP2;P2;SDS_P1;SDS_P2;PMS_P1;PMS_P2;Temp;Humidity;BMP_temperature;BMP_pressure;BME280_temperature;BME280_humidity;BME280_pressure;Samples;Min_cycle;Max_cycle;Signal;HPM_P1;HPM_P2
2023/12/07 00:00:00;;;;;;;4.43;3.67;;;;;;;22.48;33.03;94665.38;6262247;27;110167;-56
2023/12/07 00:03:06;;;;;;;4.13;3.60;;;;;;;22.51;32.77;94669.31;6286351;27;110321;-56
2023/12/07 00:06:10;;;;;;;4.03;3.73;;;;;;;22.50;32.63;94671.19;6287871;27;110156;-56
2023/12/07 00:09:13;;;;;;;4.70;4.20;;;;;;;22.48;32.74;94673.38;6274670;27;110057;-56
2023/12/07 00:12:17;;;;;;;4.37;3.97;;;;;;;22.50;32.49;94675.75;6280683;27;110224;-56
2023/12/07 00:15:21;;;;;;;4.13;3.70;;;;;;;22.51;32.21;94674.63;6266179;27;110175;-56
2023/12/07 00:18:24;;;;;;;4.03;3.73;;;;;;;22.52;32.76;94673.56;6254586;27;109204;-56
2023/12/07 00:21:27;;;;;;;4.00;3.60;;;;;;;22.51;32.46;94670.09;6277810;27;109113;-56
2023/12/07 00:24:30;;;;;;;4.67;4.17;;;;;;;22.50;32.46;94668.53;6282033;27;109034;-57
2023/12/07 00:27:35;;;;;;;3.60;3.13;;;;;;;22.49;32.57;94674.97;6287908;27;109224;-57
2023/12/07 00:30:38;;;;;;;4.13;3.73;;;;;;;22.48;32.51;94673.38;6275788;27;109124;-57
2023/12/07 00:33:41;;;;;;;3.63;3.33;;;;;;;22.48;32.83;94681.38;6284609;27;109070;-57
2023/12/07 00:36:45;;;;;;;4.20;3.80;;;;;;;22.51;32.89;94670.09;6294601;27;109242;-57
2023/12/07 00:39:48;;;;;;;4.17;3.77;;;;;;;22.50;32.45;94670.41;6279793;27;110224;-57
2023/12/07 00:42:52;;;;;;;4.43;4.03;;;;;;;22.51;32.86;94671.97;6275759;27;110315;-57
2023/12/07 00:45:57;;;;;;;4.50;4.10;;;;;;;22.50;32.82;94675.75;6267890;27;110186;-57
2023/12/07 00:49:00;;;;;;;3.60;3.30;;;;;;;22.50;32.71;94678.41;6263685;27;109290;-57
2023/12/07 00:52:04;;;;;;;4.27;3.87;;;;;;;22.50;32.48;94675.75;6277537;27;109144;-57
2023/12/07 00:55:07;;;;;;;4.33;3.93;;;;;;;22.50;32.58;94665.06;6269681;27;109053;-57
2023/12/07 00:58:16;;;;;;;4.33;3.93;;;;;;;22.49;33.05;94664.28;6287531;27;109640;-57
2023/12/07 01:01:19;;;;;;;4.60;4.20;;;;;;;22.50;32.92;94665.84;6287388;27;109968;-57
2023/12/07 01:04:22;;;;;;;4.03;3.67;;;;;;;22.49;32.65;94653.63;6276969;27;110543;-56
2023/12/07 01:07:25;;;;;;;6.93;4.50;;;;;;;22.48;33.00;94654.72;6266962;27;109431;-58
2023/12/07 01:10:28;;;;;;;5.00;4.50;;;;;;;22.49;32.67;94663.50;6277685;27;109308;-57
2023/12/07 01:13:33;;;;;;;5.00;4.50;;;;;;;22.49;32.98;94653.63;6287422;27;110206;-58
2023/12/07 01:16:36;;;;;;;5.33;4.83;;;;;;;22.50;32.89;94655.19;6256911;27;109470;-57
2023/12/07 01:19:39;;;;;;;5.37;4.87;;;;;;;22.50;32.77;94660.53;6262926;27;110606;-58
2023/12/07 01:22:43;;;;;;;5.50;5.00;;;;;;;22.49;32.55;94658.97;6282969;27;110073;-57
2023/12/07 01:25:46;;;;;;;5.80;5.20;;;;;;;22.52;32.57;94657.56;6271806;27;109057;-58
2023/12/07 01:28:51;;;;;;;5.63;5.00;;;;;;;22.49;32.51;94658.97;6277540;27;109426;-57
2023/12/07 01:31:54;;;;;;;5.83;5.33;;;;;;;22.49;32.89;94648.28;6286151;27;109115;-58
2023/12/07 01:34:57;;;;;;;6.47;5.87;;;;;;;22.50;32.38;94649.06;6277000;27;109104;-57
2023/12/07 01:38:00;;;;;;;5.47;4.97;;;;;;;22.51;32.72;94651.41;6267306;27;109026;-58
2023/12/07 01:41:04;;;;;;;6.30;5.70;;;;;;;22.49;32.59;94645.63;6268304;27;110358;-57
2023/12/07 01:44:08;;;;;;;6.53;5.80;;;;;;;22.49;32.68;94632.28;6283559;27;109302;-57
2023/12/07 01:47:12;;;;;;;6.30;5.77;;;;;;;22.50;32.63;94638.41;6267633;27;109852;-57
2023/12/07 01:50:15;;;;;;;6.10;5.50;;;;;;;22.51;33.07;94635.41;6251052;27;109612;-56
2023/12/07 01:53:19;;;;;;;6.10;5.60;;;;;;;22.49;32.81;94637.63;6279609;27;109197;-58
2023/12/07 01:56:24;;;;;;;5.90;5.40;;;;;;;22.52;32.55;94641.56;6285987;27;109606;-56
2023/12/07 01:59:29;;;;;;;7.10;6.40;;;;;;;22.50;33.16;94639.19;6287516;27;110721;-56
2023/12/07 02:02:33;;;;;;;6.30;5.70;;;;;;;22.52;32.64;94641.56;6272015;27;110169;-57
2023/12/07 02:05:37;;;;;;;5.90;5.30;;;;;;;22.52;32.66;94644.22;6277357;27;109061;-57
2023/12/07 02:08:41;;;;;;;6.30;5.70;;;;;;;22.52;32.90;94645.00;6264268;27;109900;-57
2023/12/07 02:11:44;;;;;;;6.70;6.10;;;;;;;22.51;33.00;94646.09;6282318;27;110298;-57
2023/12/07 02:14:49;;;;;;;6.37;5.77;;;;;;;22.51;32.50;94643.41;6273073;27;109809;-57
2023/12/07 02:17:59;;;;;;;6.63;6.03;;;;;;;22.50;32.76;94639.19;6286697;27;109112;-57
2023/12/07 02:21:10;;;;;;;6.40;5.80;;;;;;;22.52;32.91;94647.69;6285749;27;110096;-57
2023/12/07 02:24:23;;;;;;;6.87;6.17;;;;;;;22.51;33.00;94642.63;6262815;27;109617;-57
2023/12/07 02:27:36;;;;;;;6.40;5.80;;;;;;;22.49;32.81;94634.19;6285745;27;109031;-57
2023/12/07 02:30:39;;;;;;;6.70;6.00;;;;;;;22.51;32.67;94630.09;6268393;27;109159;-57
2023/12/07 02:33:42;;;;;;;6.90;6.30;;;;;;;22.52;32.75;94629.00;6273161;27;110085;-57
2023/12/07 02:36:49;;;;;;;6.50;5.90;;;;;;;22.52;32.48;94628.22;6253319;27;109043;-56
2023/12/07 02:39:53;;;;;;;6.23;5.63;;;;;;;22.53;32.76;94622.56;6263081;27;110208;-55
2023/12/07 02:42:58;;;;;;;6.87;6.17;;;;;;;22.52;32.71;94622.91;6280423;27;109043;-56
2023/12/07 02:46:02;;;;;;;7.10;6.40;;;;;;;22.53;32.49;94627.91;6258143;27;110165;-57
2023/12/07 02:49:05;;;;;;;6.20;5.63;;;;;;;22.55;32.82;94628.38;6259714;27;109290;-57
2023/12/07 02:52:08;;;;;;;7.00;6.30;;;;;;;22.53;32.53;94627.91;6280386;27;109369;-57
2023/12/07 02:55:12;;;;;;;7.40;6.70;;;;;;;22.54;32.95;94634.03;6284803;27;109437;-57
2023/12/07 02:58:16;;;;;;;6.07;5.57;;;;;;;22.52;32.63;94630.91;6273085;27;109027;-57
2023/12/07 03:01:19;;;;;;;7.70;7.00;;;;;;;22.54;32.33;94634.81;6283999;27;109414;-56
2023/12/07 03:04:23;;;;;;;7.00;6.40;;;;;;;22.55;32.55;94635.59;6283730;27;110367;-57
2023/12/07 03:07:26;;;;;;;6.97;6.37;;;;;;;22.52;32.93;94639.69;6274805;27;109209;-56
2023/12/07 03:10:29;;;;;;;7.03;6.40;;;;;;;22.53;32.62;94632.47;6255465;27;111153;-57
2023/12/07 03:13:33;;;;;;;6.80;6.20;;;;;;;22.51;32.82;94629.31;6274293;27;108957;-58
2023/12/07 03:16:37;;;;;;;7.20;6.60;;;;;;;22.51;32.77;94635.41;6265844;27;110017;-57
2023/12/07 03:19:40;;;;;;;7.40;6.80;;;;;;;22.52;32.67;94636.22;6281521;27;110154;-57
2023/12/07 03:22:44;;;;;;;7.20;6.60;;;;;;;22.51;32.51;94638.09;6268005;27;109992;-57
2023/12/07 03:25:47;;;;;;;7.30;6.60;;;;;;;22.53;32.49;94651.13;6278247;27;109132;-57
2023/12/07 03:28:52;;;;;;;6.87;6.20;;;;;;;22.53;33.05;94654.56;6280105;27;108976;-56
2023/12/07 03:31:54;;;;;;;7.10;6.50;;;;;;;22.54;32.92;94658.03;6266637;27;110672;-57
2023/12/07 03:34:58;;;;;;;7.40;6.63;;;;;;;22.52;32.96;94657.56;6259646;27;111687;-57
2023/12/07 03:38:01;;;;;;;6.97;6.37;;;;;;;22.53;33.02;94654.56;6276370;27;109274;-56
2023/12/07 03:41:05;;;;;;;6.80;6.10;;;;;;;22.52;32.90;94654.91;6262260;27;109539;-57
2023/12/07 03:44:09;;;;;;;7.57;6.80;;;;;;;22.53;32.59;94659.91;6255445;27;110029;-56
2023/12/07 03:47:12;;;;;;;7.50;6.80;;;;;;;22.51;33.14;94659.41;6269442;27;109516;-56
2023/12/07 03:50:15;;;;;;;7.00;6.30;;;;;;;22.52;32.72;94661.00;6263095;27;110138;-57
2023/12/07 03:53:18;;;;;;;6.90;6.27;;;;;;;22.52;33.06;94653.00;6278182;27;110766;-57
2023/12/07 03:56:25;;;;;;;7.43;6.77;;;;;;;22.50;33.01;94655.19;6257067;27;110126;-58
2023/12/07 03:59:29;;;;;;;7.50;6.80;;;;;;;22.54;32.57;94650.03;6278268;27;109186;-56
2023/12/07 04:02:33;;;;;;;7.60;6.97;;;;;;;22.51;32.98;94643.41;6268681;27;109279;-56
2023/12/07 04:05:37;;;;;;;7.10;6.40;;;;;;;22.55;32.86;94647.03;6251603;27;110585;-58
2023/12/07 04:08:40;;;;;;;6.87;6.17;;;;;;;22.52;32.77;94639.69;6270234;27;110155;-57
2023/12/07 04:11:43;;;;;;;7.40;6.77;;;;;;;22.54;32.82;94645.47;6263771;27;109185;-57
2023/12/07 04:14:48;;;;;;;7.53;6.90;;;;;;;22.55;32.84;94646.25;6262282;27;109311;-57
2023/12/07 04:17:51;;;;;;;7.50;6.77;;;;;;;22.55;32.44;94644.38;6256187;27;110428;-56
2023/12/07 04:20:54;;;;;;;9.80;7.77;;;;;;;22.56;33.07;94651.28;6262487;27;110086;-56
2023/12/07 04:23:58;;;;;;;7.63;6.80;;;;;;;22.55;32.90;94656.94;6282279;27;110249;-57
2023/12/07 04:27:01;;;;;;;7.67;6.97;;;;;;;22.56;32.95;94664.59;6275032;27;109199;-57
2023/12/07 04:30:06;;;;;;;8.90;6.70;;;;;;;22.60;32.36;94665.56;6268330;27;109113;-57
2023/12/07 04:33:09;;;;;;;6.60;6.00;;;;;;;22.59;33.04;94671.22;6278840;27;109305;-57
2023/12/07 04:36:13;;;;;;;7.90;7.10;;;;;;;22.59;32.71;94685.31;6283813;27;108989;-56
2023/12/07 04:39:16;;;;;;;7.60;6.90;;;;;;;22.57;32.55;94671.53;6261014;27;109749;-57
2023/12/07 04:42:19;;;;;;;7.63;6.93;;;;;;;22.60;32.85;94684.22;6257313;27;110402;-56
2023/12/07 04:45:23;;;;;;;10.60;7.30;;;;;;;22.63;33.28;94690.81;6261292;27;109167;-59
2023/12/07 04:48:26;;;;;;;7.60;6.90;;;;;;;22.64;33.44;94677.16;6277293;27;109155;-59
2023/12/07 04:51:30;;;;;;;7.30;6.43;;;;;;;22.63;32.87;94686.25;6252670;27;110968;-60
2023/12/07 04:54:33;;;;;;;7.80;6.47;;;;;;;22.62;33.44;94683.91;6269194;27;109078;-60
2023/12/07 04:57:37;;;;;;;8.20;7.40;;;;;;;22.65;33.37;94680.59;6267754;27;109040;-60
2023/12/07 05:00:42;;;;;;;8.70;7.30;;;;;;;22.65;33.61;94676.03;6266435;27;109344;-61
2023/12/07 05:03:45;;;;;;;7.63;6.83;;;;;;;22.68;34.05;94677.28;6276238;27;109303;-60
2023/12/07 05:06:48;;;;;;;9.27;7.60;;;;;;;22.63;33.89;94686.25;6272297;27;109289;-61
2023/12/07 05:09:51;;;;;;;10.10;8.30;;;;;;;22.70;34.05;94685.78;6268423;27;109258;-60
2023/12/07 05:12:56;;;;;;;9.87;8.50;;;;;;;22.75;33.81;94687.50;6266696;27;109520;-60
2023/12/07 05:16:01;;;;;;;8.53;7.73;;;;;;;22.67;34.22;94703.19;6252718;27;113068;-60
2023/12/07 05:19:04;;;;;;;9.23;8.33;;;;;;;22.72;34.10;94694.25;6277058;27;110305;-61
2023/12/07 05:22:08;;;;;;;8.73;7.90;;;;;;;22.68;34.66;94699.44;6286425;27;109181;-62
2023/12/07 05:25:11;;;;;;;9.60;8.67;;;;;;;22.57;34.94;94700.88;6287584;27;109045;-63
2023/12/07 05:28:14;;;;;;;11.33;8.77;;;;;;;22.45;34.59;94698.03;6277559;27;109518;-62
2023/12/07 05:31:18;;;;;;;10.90;8.73;;;;;;;22.36;34.73;94699.94;6287027;27;109080;-61
2023/12/07 05:34:22;;;;;;;9.77;8.77;;;;;;;22.31;34.68;94695.53;6287763;27;109022;-61
2023/12/07 05:37:25;;;;;;;9.87;8.97;;;;;;;22.29;35.22;94703.06;6286756;27;109216;-61
2023/12/07 05:40:28;;;;;;;12.37;9.77;;;;;;;22.27;34.77;94707.16;6276610;27;109151;-61
2023/12/07 05:43:33;;;;;;;10.97;9.83;;;;;;;22.24;35.05;94708.56;6287463;27;109463;-60
2023/12/07 05:46:39;;;;;;;10.47;9.43;;;;;;;22.23;35.32;94708.88;6287405;27;109208;-61
2023/12/07 05:49:43;;;;;;;10.23;8.93;;;;;;;22.22;35.33;94713.44;6279390;27;109889;-61
2023/12/07 05:52:46;;;;;;;9.87;8.97;;;;;;;22.23;35.08;94716.88;6286907;27;110476;-62
2023/12/07 05:55:49;;;;;;;10.33;9.23;;;;;;;22.16;35.32;94703.22;6287448;27;109219;-61
2023/12/07 05:58:52;;;;;;;9.97;8.97;;;;;;;22.19;35.03;94706.06;6287236;27;110119;-61
2023/12/07 06:01:57;;;;;;;9.70;8.80;;;;;;;22.18;35.14;94711.69;6282561;27;109543;-63
2023/12/07 06:05:00;;;;;;;10.27;9.33;;;;;;;22.18;34.96;94722.34;6286915;27;109102;-61
2023/12/07 06:08:04;;;;;;;9.90;8.90;;;;;;;22.15;35.14;94714.97;6286089;27;109046;-63
2023/12/07 06:11:07;;;;;;;10.37;9.40;;;;;;;22.15;35.14;94717.66;6281791;27;109107;-60
2023/12/07 06:14:11;;;;;;;9.13;8.33;;;;;;;22.14;35.40;94722.19;6282817;27;109487;-60
2023/12/07 06:17:16;;;;;;;9.07;8.27;;;;;;;22.13;35.32;94733.16;6286967;27;109490;-61
2023/12/07 06:20:19;;;;;;;10.37;9.27;;;;;;;22.15;35.32;94737.09;6286917;27;109347;-61
2023/12/07 06:23:22;;;;;;;9.90;9.00;;;;;;;22.20;34.79;94736.16;6260643;27;112452;-60
2023/12/07 06:26:26;;;;;;;10.33;9.30;;;;;;;22.21;35.20;94735.06;6287230;27;110186;-59
2023/12/07 06:29:29;;;;;;;9.10;8.20;;;;;;;22.23;34.95;94736.31;6287092;27;109688;-63
2023/12/07 06:32:33;;;;;;;9.57;8.73;;;;;;;22.24;35.16;94731.75;6285866;27;108949;-62
2023/12/07 06:35:37;;;;;;;8.90;8.10;;;;;;;22.22;35.06;94723.31;6277438;27;109792;-62
2023/12/07 06:38:40;;;;;;;8.23;7.43;;;;;;;22.23;35.15;94735.53;6285618;27;109707;-63
2023/12/07 06:41:43;;;;;;;8.47;7.67;;;;;;;22.22;34.84;94731.28;6286643;27;109621;-63
2023/12/07 06:44:49;;;;;;;7.90;7.20;;;;;;;22.23;34.77;94735.53;6281562;27;110293;-62
2023/12/07 06:47:54;;;;;;;9.20;8.30;;;;;;;22.22;35.44;94734.75;6280903;27;109018;-63
2023/12/07 06:50:57;;;;;;;8.63;7.93;;;;;;;22.23;34.95;94740.88;6286768;27;111809;-63
2023/12/07 06:54:00;;;;;;;8.50;7.80;;;;;;;22.23;34.89;94741.66;6285904;27;109077;-62
2023/12/07 06:57:03;;;;;;;7.67;6.97;;;;;;;22.23;35.32;94746.19;6251064;27;109991;-62
2023/12/07 07:00:10;;;;;;;8.10;7.30;;;;;;;22.23;35.18;94746.19;6283941;27;109330;-63
2023/12/07 07:03:15;;;;;;;8.23;7.53;;;;;;;22.23;35.39;94754.19;6286214;27;112959;-62
2023/12/07 07:06:18;;;;;;;7.90;7.10;;;;;;;22.23;35.13;94752.31;6286014;27;109455;-62
2023/12/07 07:09:21;;;;;;;8.73;7.57;;;;;;;22.22;34.88;94752.63;6274911;27;109345;-62
2023/12/07 07:12:24;;;;;;;8.37;7.60;;;;;;;22.21;35.10;94753.72;6284854;27;109578;-63
2023/12/07 07:15:27;;;;;;;8.43;7.30;;;;;;;22.21;34.94;94757.16;6285903;27;109251;-62
2023/12/07 07:18:32;;;;;;;7.90;7.20;;;;;;;22.20;35.30;94754.81;6286062;27;110234;-62
2023/12/07 07:21:35;;;;;;;7.27;6.57;;;;;;;22.24;35.65;94758.41;6274527;27;109539;-61
2023/12/07 07:24:39;;;;;;;7.73;7.00;;;;;;;22.36;35.69;94751.38;6285619;27;108872;-61
2023/12/07 07:27:42;;;;;;;8.63;7.73;;;;;;;22.41;34.93;94756.53;6285783;27;109439;-60
2023/12/07 07:30:45;;;;;;;8.00;7.27;;;;;;;22.43;34.78;94748.22;6278375;27;109589;-60
2023/12/07 07:33:49;;;;;;;6.87;6.20;;;;;;;22.45;34.92;94751.34;6283412;27;109234;-63
2023/12/07 07:37:03;;;;;;;8.03;7.30;;;;;;;22.41;35.14;94755.75;6285550;27;108663;-62
2023/12/07 07:40:09;;;;;;;7.47;6.77;;;;;;;22.42;35.10;94759.97;6284632;27;109109;-61
2023/12/07 07:43:14;;;;;;;6.80;6.20;;;;;;;22.44;35.66;94757.00;6274577;27;109165;-62
2023/12/07 07:46:17;;;;;;;7.63;6.50;;;;;;;22.39;35.41;94761.41;6285183;27;109163;-62
2023/12/07 07:49:22;;;;;;;8.80;6.77;;;;;;;22.29;35.37;94760.91;6285505;27;109357;-60
2023/12/07 07:52:25;;;;;;;7.50;6.80;;;;;;;22.24;34.94;94772.53;6285470;27;109069;-62
2023/12/07 07:55:28;;;;;;;7.10;6.40;;;;;;;22.20;35.18;94768.16;6275793;27;109774;-60
2023/12/07 07:58:31;;;;;;;6.83;6.23;;;;;;;22.17;35.26;94769.53;6285240;27;109464;-61
2023/12/07 08:01:34;;;;;;;7.40;6.80;;;;;;;22.15;35.55;94768.28;6285541;27;109205;-61
2023/12/07 08:04:39;;;;;;;7.40;6.70;;;;;;;22.15;35.20;94778.94;6279203;27;109029;-62
2023/12/07 08:07:42;;;;;;;6.87;6.27;;;;;;;22.14;35.30;94774.69;6280231;27;111884;-61
2023/12/07 08:10:45;;;;;;;6.60;5.93;;;;;;;22.13;35.43;94778.47;6284431;27;109298;-62
2023/12/07 08:13:58;;;;;;;6.77;6.17;;;;;;;22.11;35.00;94781.44;6285270;27;109851;-63
2023/12/07 08:17:01;;;;;;;7.50;6.73;;;;;;;22.12;35.41;94791.00;6274003;27;109681;-62
2023/12/07 08:20:07;;;;;;;5.80;5.20;;;;;;;22.11;35.03;94787.56;6284692;27;109552;-62
2023/12/07 08:23:11;;;;;;;7.17;6.50;;;;;;;22.08;35.26;94782.84;6287388;27;110483;-62
2023/12/07 08:26:14;;;;;;;6.47;5.87;;;;;;;22.08;34.83;94796.19;6289024;27;109108;-63
2023/12/07 08:29:17;;;;;;;5.90;5.40;;;;;;;22.09;34.77;94795.09;6278831;27;112231;-63
2023/12/07 08:32:20;;;;;;;6.97;6.27;;;;;;;22.09;34.71;94800.41;6288593;27;109203;-62
2023/12/07 08:35:25;;;;;;;6.33;5.73;;;;;;;22.08;34.90;94796.19;6289149;27;109197;-62
2023/12/07 08:38:28;;;;;;;6.27;5.70;;;;;;;22.08;34.95;94804.19;6283732;27;109421;-62
2023/12/07 08:41:31;;;;;;;7.00;6.20;;;;;;;22.06;35.01;94800.25;6282911;27;109323;-61
2023/12/07 08:44:34;;;;;;;6.30;5.80;;;;;;;22.07;35.18;94810.59;6289231;27;109966;-61
2023/12/07 08:47:37;;;;;;;6.43;5.83;;;;;;;22.07;34.72;94809.81;6288911;27;111222;-61
2023/12/07 08:50:42;;;;;;;5.67;5.07;;;;;;;22.06;34.94;94809.03;6278402;27;109009;-62
2023/12/07 08:53:46;;;;;;;5.23;4.80;;;;;;;22.06;34.79;94811.69;6288453;27;108795;-62
2023/12/07 08:56:54;;;;;;;5.53;5.03;;;;;;;22.05;35.25;94810.13;6288945;27;109166;-61
2023/12/07 08:59:58;;;;;;;5.83;5.33;;;;;;;22.05;34.96;94812.81;6289432;27;109368;-62
2023/12/07 09:03:01;;;;;;;5.80;5.30;;;;;;;22.05;35.18;94820.78;6278885;27;109905;-62
2023/12/07 09:06:06;;;;;;;5.40;4.90;;;;;;;22.06;34.66;94817.03;6288446;27;109710;-61
2023/12/07 09:09:11;;;;;;;4.90;4.50;;;;;;;22.05;34.72;94815.47;6288107;27;109118;-61
2023/12/07 09:12:15;;;;;;;6.30;5.63;;;;;;;22.05;35.09;94804.81;6287655;27;109540;-63
2023/12/07 09:15:26;;;;;;;5.03;4.53;;;;;;;22.05;35.07;94812.81;6281026;27;109450;-62
2023/12/07 09:18:29;;;;;;;4.60;4.20;;;;;;;22.06;34.89;94816.25;6288067;27;109199;-62
2023/12/07 09:21:34;;;;;;;5.27;4.77;;;;;;;22.06;35.03;94813.59;6287684;27;111353;-61
2023/12/07 09:24:37;;;;;;;4.50;4.10;;;;;;;22.05;34.57;94807.47;6277319;27;108799;-62
2023/12/07 09:27:41;;;;;;;4.80;4.30;;;;;;;22.06;34.72;94813.59;6287720;27;109068;-62
2023/12/07 09:30:44;;;;;;;4.97;4.57;;;;;;;22.05;34.77;94815.47;6287494;27;110242;-62
2023/12/07 09:33:47;;;;;;;4.83;4.30;;;;;;;22.06;34.80;94821.56;6287230;27;110918;-62
2023/12/07 09:37:06;;;;;;;4.50;4.10;;;;;;;22.06;34.96;94817.03;6277165;27;109385;-61
2023/12/07 09:40:16;;;;;;;4.50;4.10;;;;;;;22.06;34.30;94818.91;6287691;27;109081;-61
2023/12/07 09:43:19;;;;;;;5.20;4.80;;;;;;;22.03;34.31;94809.66;6287224;27;109468;-60
2023/12/07 09:46:23;;;;;;;8.07;7.37;;;;;;;21.98;34.11;94809.78;6287505;27;108794;-60
2023/12/07 09:49:26;;;;;;;13.80;12.70;;;;;;;22.01;34.39;94819.84;6277674;27;109092;-61
2023/12/07 09:52:31;;;;;;;22.03;20.30;;;;;;;22.00;34.53;94812.94;6287599;27;110063;-62
2023/12/07 09:55:34;;;;;;;21.80;20.10;;;;;;;21.99;34.50;94815.91;6287292;27;109089;-62
2023/12/07 09:58:42;;;;;;;23.13;21.23;;;;;;;21.99;34.84;94815.91;6279106;27;109773;-63
2023/12/07 10:01:45;;;;;;;18.10;16.70;;;;;;;21.98;34.64;94809.78;6287324;27;110991;-62
2023/12/07 10:04:49;;;;;;;16.83;15.53;;;;;;;21.97;34.76;94813.56;6287127;27;109479;-62
2023/12/07 10:07:53;;;;;;;15.87;14.57;;;;;;;21.97;34.93;94810.09;6287260;27;109512;-63
2023/12/07 10:11:05;;;;;;;14.90;13.70;;;;;;;21.98;34.85;94817.00;6276327;27;111216;-62
2023/12/07 10:14:09;;;;;;;13.33;12.33;;;;;;;21.95;34.61;94813.06;6285849;27;109052;-62
2023/12/07 10:17:12;;;;;;;12.67;11.70;;;;;;;21.97;34.55;94813.56;6287112;27;109353;-66
2023/12/07 10:20:17;;;;;;;12.67;11.57;;;;;;;21.96;34.52;94811.97;6287046;27;109681;-61
2023/12/07 10:23:25;;;;;;;11.83;10.83;;;;;;;21.96;34.70;94806.66;6275979;27;109889;-62
2023/12/07 10:26:28;;;;;;;11.57;10.57;;;;;;;21.96;34.28;94806.66;6286400;27;110237;-62
2023/12/07 10:29:31;;;;;;;9.20;8.40;;;;;;;21.95;34.20;94809.63;6286580;27;109259;-61
2023/12/07 10:32:38;;;;;;;9.40;8.50;;;;;;;21.94;34.09;94806.19;6279591;27;111451;-61
2023/12/07 10:35:43;;;;;;;8.57;7.87;;;;;;;21.95;34.49;94804.31;6284336;27;109400;-62
2023/12/07 10:38:50;;;;;;;8.77;8.03;;;;;;;21.95;34.37;94810.41;6286677;27;110128;-62
2023/12/07 10:42:02;;;;;;;7.60;7.00;;;;;;;21.94;34.04;94816.84;6287070;27;108883;-62
2023/12/07 10:45:07;;;;;;;6.70;6.20;;;;;;;21.93;34.42;94807.28;6275032;27;109253;-62
2023/12/07 10:48:11;;;;;;;6.93;6.33;;;;;;;21.91;33.78;94804.16;6286605;27;109560;-62
2023/12/07 10:51:22;;;;;;;6.33;5.77;;;;;;;21.92;34.45;94805.72;6286374;27;109860;-62
2023/12/07 10:54:39;;;;;;;6.83;6.13;;;;;;;21.95;34.12;94799.75;6286191;27;109108;-62
2023/12/07 10:57:46;;;;;;;6.03;5.53;;;;;;;21.97;34.27;94802.91;6253352;27;109391;-61
2023/12/07 11:00:50;;;;;;;5.70;5.20;;;;;;;22.01;33.93;94809.19;6276721;27;109287;-63
2023/12/07 11:03:54;;;;;;;4.80;4.50;;;;;;;22.01;33.78;94808.38;6286064;27;109125;-62
2023/12/07 11:07:08;;;;;;;4.30;3.93;;;;;;;21.98;34.06;94799.13;6275862;27;110354;-62
2023/12/07 11:10:21;;;;;;;4.13;3.80;;;;;;;22.00;34.34;94809.47;6285947;27;109199;-61
2023/12/07 11:13:30;;;;;;;4.43;4.03;;;;;;;22.00;34.14;94806.81;6285897;27;111664;-61
2023/12/07 11:16:33;;;;;;;4.13;3.83;;;;;;;22.01;33.95;94806.53;6284975;27;109592;-62
2023/12/07 11:19:47;;;;;;;3.27;2.93;;;;;;;22.00;34.30;94804.94;6274702;27;109365;-62
2023/12/07 11:22:51;;;;;;;3.83;3.43;;;;;;;22.01;33.72;94805.72;6285863;27;109138;-62
2023/12/07 11:25:56;;;;;;;3.50;3.10;;;;;;;22.00;33.73;94806.81;6285550;27;110392;-61
2023/12/07 11:29:00;;;;;;;3.37;3.07;;;;;;;21.99;33.89;94806.03;6280969;27;109026;-61
2023/12/07 11:32:06;;;;;;;3.30;3.00;;;;;;;21.98;34.31;94801.78;6278883;27;109190;-61
2023/12/07 11:35:21;;;;;;;3.03;2.30;;;;;;;21.95;33.96;94801.63;6285242;27;108982;-61
2023/12/07 11:38:24;;;;;;;2.97;2.43;;;;;;;21.98;34.08;94806.34;6285407;27;109370;-62
2023/12/07 11:41:34;;;;;;;3.07;2.77;;;;;;;21.95;34.48;94794.44;6274386;27;110492;-62
2023/12/07 11:44:38;;;;;;;3.23;2.80;;;;;;;21.93;34.32;94791.28;6285217;27;109194;-62
2023/12/07 11:47:41;;;;;;;2.63;2.43;;;;;;;21.91;34.45;94790.81;6284634;27;110575;-62
2023/12/07 11:51:01;;;;;;;2.83;2.40;;;;;;;21.89;34.35;94790.34;6285118;27;109410;-60
2023/12/07 11:54:04;;;;;;;3.50;2.60;;;;;;;21.89;34.78;94789.56;6274211;27;110189;-61
2023/12/07 11:57:09;;;;;;;4.00;2.43;;;;;;;21.88;34.25;94794.13;6283759;27;109111;-61
2023/12/07 12:00:13;;;;;;;2.27;2.07;;;;;;;21.87;34.44;94787.22;6284724;27;109178;-62
2023/12/07 12:03:17;;;;;;;2.40;2.20;;;;;;;21.88;34.08;94785.34;6280302;27;110228;-61
2023/12/07 12:06:20;;;;;;;2.63;2.30;;;;;;;21.88;34.05;94785.34;6279364;27;109227;-62
2023/12/07 12:09:25;;;;;;;2.77;1.90;;;;;;;21.89;34.54;94795.69;6285400;27;109465;-61
2023/12/07 12:12:36;;;;;;;2.70;1.87;;;;;;;21.87;33.92;94792.53;6259902;27;110249;-62
2023/12/07 12:15:40;;;;;;;4.10;2.40;;;;;;;21.87;34.33;94786.44;6258453;27;110406;-61
2023/12/07 12:18:43;;;;;;;3.00;2.63;;;;;;;21.94;34.11;94787.53;6283971;27;109006;-63
2023/12/07 12:21:47;;;;;;;2.30;1.83;;;;;;;21.91;34.20;94782.84;6284828;27;109469;-61
2023/12/07 12:24:50;;;;;;;2.60;2.37;;;;;;;21.94;34.01;94781.41;6284325;27;109996;-62
2023/12/07 12:27:55;;;;;;;2.70;1.93;;;;;;;21.92;34.06;94787.06;6248596;27;110011;-61
2023/12/07 12:30:58;;;;;;;2.40;1.80;;;;;;;21.95;34.13;94785.66;6270345;27;109192;-62
2023/12/07 12:34:02;;;;;;;2.27;1.87;;;;;;;21.94;34.00;94776.88;6284368;27;109790;-61
2023/12/07 12:37:12;;;;;;;2.47;2.00;;;;;;;21.94;34.02;94774.22;6279457;27;109109;-61
2023/12/07 12:40:18;;;;;;;2.20;1.60;;;;;;;21.91;33.69;94774.84;6278564;27;109255;-61
2023/12/07 12:43:23;;;;;;;2.43;1.83;;;;;;;21.91;33.89;94779.38;6284375;27;109291;-61
2023/12/07 12:46:26;;;;;;;2.33;1.90;;;;;;;21.88;34.20;94785.34;6284107;27;109220;-62
2023/12/07 12:49:36;;;;;;;2.37;1.90;;;;;;;21.87;33.86;94792.53;6272597;27;109357;-62
2023/12/07 12:52:41;;;;;;;2.50;2.03;;;;;;;21.86;33.73;94796.31;6284556;27;111787;-64
2023/12/07 12:55:44;;;;;;;1.70;1.33;;;;;;;21.85;34.08;94797.41;6284179;27;110211;-61
2023/12/07 12:58:49;;;;;;;1.70;1.40;;;;;;;21.85;33.75;94799.28;6284141;27;109008;-62
2023/12/07 13:01:52;;;;;;;2.57;1.70;;;;;;;21.85;34.07;94799.28;6273109;27;109316;-60
2023/12/07 13:04:57;;;;;;;2.27;1.77;;;;;;;21.84;33.52;94798.47;6284149;27;109472;-61
2023/12/07 13:08:03;;;;;;;1.97;1.60;;;;;;;21.88;34.00;94802.09;6284223;27;109909;-61
2023/12/07 13:11:17;;;;;;;2.07;1.50;;;;;;;21.89;33.65;94806.34;6284114;27;109620;-61
2023/12/07 13:14:21;;;;;;;1.70;1.30;;;;;;;21.89;33.29;94798.34;6283159;27;110095;-61
2023/12/07 13:17:24;;;;;;;2.10;1.57;;;;;;;21.90;33.51;94813.22;6288468;27;109420;-60
2023/12/07 13:20:28;;;;;;;1.70;1.30;;;;;;;21.91;33.20;94811.34;6287441;27;109061;-61
2023/12/07 13:23:32;;;;;;;2.50;1.40;;;;;;;21.90;33.68;94823.09;6278044;27;111031;-62
2023/12/07 13:26:35;;;;;;;2.73;1.60;;;;;;;21.90;33.36;94829.22;6287449;27;109339;-62
2023/12/07 13:29:39;;;;;;;1.97;1.20;;;;;;;21.90;33.81;94831.09;6288094;27;110510;-63
2023/12/07 13:32:42;;;;;;;1.97;1.63;;;;;;;21.87;33.45;94821.84;6287340;27;109209;-63
2023/12/07 13:35:45;;;;;;;2.00;1.47;;;;;;;21.88;33.55;94844.72;6276499;27;109027;-62
2023/12/07 13:38:48;;;;;;;1.83;1.33;;;;;;;21.85;33.73;94836.56;6288029;27;109435;-62
2023/12/07 13:41:52;;;;;;;1.60;1.10;;;;;;;21.83;33.44;94838.72;6288029;27;110051;-62
2023/12/07 13:44:57;;;;;;;2.00;1.17;;;;;;;21.83;33.81;94841.41;6287854;27;109245;-62
2023/12/07 13:48:00;;;;;;;1.70;1.40;;;;;;;21.84;33.46;94848.28;6276456;27;110418;-62
2023/12/07 13:51:04;;;;;;;1.87;1.30;;;;;;;21.84;33.28;94854.41;6286916;27;109613;-61
2023/12/07 13:54:07;;;;;;;1.80;1.30;;;;;;;21.84;33.89;94848.28;6287327;27;108984;-61
2023/12/07 13:57:30;;;;;;;1.60;1.23;;;;;;;21.84;33.37;94859.72;6277629;27;108942;-63
2023/12/07 14:00:35;;;;;;;1.50;1.30;;;;;;;21.84;33.61;94859.72;6287244;27;109457;-61
2023/12/07 14:03:38;;;;;;;1.60;1.43;;;;;;;21.85;33.48;94858.66;6287544;27;109058;-61
2023/12/07 14:06:41;;;;;;;1.97;1.50;;;;;;;21.85;33.64;94865.88;6287283;27;109103;-61
2023/12/07 14:09:46;;;;;;;1.80;1.33;;;;;;;21.84;33.81;94867.72;6276525;27;110195;-63
2023/12/07 14:12:59;;;;;;;1.80;1.47;;;;;;;21.83;33.09;94868.81;6287419;27;110303;-61
2023/12/07 14:16:08;;;;;;;1.60;1.30;;;;;;;21.84;33.67;94873.06;6287064;27;109058;-62